Absarokee, Montana
Current Conditions -  °F | °C
As of 9:53 AM on Wednesday 22 Oct 2014 (Local Time) from KBIL Reporting Station
Clear Clear  
Wind Chill:   Ceiling: Unl
Heat Index:   Visibility: 10mi
Dew Point: -2°   Wind: 15mph
Humidity: 46%   Direction: 240°WSW
Pressure: 30.02"   Gusts: NA
Location:  45.53°N, 109.43°W
Report Text: KBIL 221553Z 24013KT 10SM CLR 09/M02 A3002 RMK AO2 SLP166 T00891022
Loading
Personal Weather Stations






























Interactive Weather Map
Tropical Storm Tracking
New forecast layout! Learn more

10-Day Weather Forecast

Advertisements
Track Severe Weather on mobile